sensor_id;sensor_type;location;lat;lon;timestamp;temperature;humidity
59923;DHT22;45778;51.142;3.732;2023-06-14T00:01:48;20.00;95.10
59923;DHT22;45778;51.142;3.732;2023-06-14T00:04:14;20.00;95.70
59923;DHT22;45778;51.142;3.732;2023-06-14T00:06:43;19.90;95.90
59923;DHT22;45778;51.142;3.732;2023-06-14T00:09:11;19.90;96.30
59923;DHT22;45778;51.142;3.732;2023-06-14T00:11:39;19.80;96.80
59923;DHT22;45778;51.142;3.732;2023-06-14T00:14:05;19.80;97.10
59923;DHT22;45778;51.142;3.732;2023-06-14T00:16:31;19.70;97.50
59923;DHT22;45778;51.142;3.732;2023-06-14T00:18:58;19.80;97.70
59923;DHT22;45778;51.142;3.732;2023-06-14T00:21:24;19.70;98.00
59923;DHT22;45778;51.142;3.732;2023-06-14T00:23:50;19.60;98.10
59923;DHT22;45778;51.142;3.732;2023-06-14T00:26:15;19.60;98.40
59923;DHT22;45778;51.142;3.732;2023-06-14T00:28:41;19.60;98.50
59923;DHT22;45778;51.142;3.732;2023-06-14T00:31:07;19.60;98.40
59923;DHT22;45778;51.142;3.732;2023-06-14T00:33:33;19.50;98.60
59923;DHT22;45778;51.142;3.732;2023-06-14T00:35:59;19.40;98.80
59923;DHT22;45778;51.142;3.732;2023-06-14T00:38:24;19.40;99.00
59923;DHT22;45778;51.142;3.732;2023-06-14T00:40:51;19.60;98.30
59923;DHT22;45778;51.142;3.732;2023-06-14T00:43:16;19.60;98.00
59923;DHT22;45778;51.142;3.732;2023-06-14T00:45:42;19.50;98.10
59923;DHT22;45778;51.142;3.732;2023-06-14T00:48:08;19.50;98.30
59923;DHT22;45778;51.142;3.732;2023-06-14T00:50:35;19.50;98.10
59923;DHT22;45778;51.142;3.732;2023-06-14T00:53:01;19.40;98.00
59923;DHT22;45778;51.142;3.732;2023-06-14T00:55:28;19.50;97.50
59923;DHT22;45778;51.142;3.732;2023-06-14T00:57:55;19.40;97.50
59923;DHT22;45778;51.142;3.732;2023-06-14T01:00:21;19.30;97.60
59923;DHT22;45778;51.142;3.732;2023-06-14T01:02:47;19.30;97.30
59923;DHT22;45778;51.142;3.732;2023-06-14T01:05:15;19.20;97.40
59923;DHT22;45778;51.142;3.732;2023-06-14T01:10:45;19.30;96.90
59923;DHT22;45778;51.142;3.732;2023-06-14T01:13:35;19.20;96.90
59923;DHT22;45778;51.142;3.732;2023-06-14T01:16:02;19.20;96.50
59923;DHT22;45778;51.142;3.732;2023-06-14T01:18:29;19.20;96.30
59923;DHT22;45778;51.142;3.732;2023-06-14T01:20:55;19.10;96.40
59923;DHT22;45778;51.142;3.732;2023-06-14T01:23:22;19.10;96.30
59923;DHT22;45778;51.142;3.732;2023-06-14T01:25:49;19.10;95.80
59923;DHT22;45778;51.142;3.732;2023-06-14T01:28:18;19.00;96.00
59923;DHT22;45778;51.142;3.732;2023-06-14T01:30:48;19.00;95.70
59923;DHT22;45778;51.142;3.732;2023-06-14T01:33:20;19.00;95.70
59923;DHT22;45778;51.142;3.732;2023-06-14T01:35:49;18.90;95.60
59923;DHT22;45778;51.142;3.732;2023-06-14T01:38:15;18.90;95.20
59923;DHT22;45778;51.142;3.732;2023-06-14T01:40:45;18.80;95.10
59923;DHT22;45778;51.142;3.732;2023-06-14T01:43:16;18.80;95.30
59923;DHT22;45778;51.142;3.732;2023-06-14T01:45:42;18.70;95.30
59923;DHT22;45778;51.142;3.732;2023-06-14T01:48:09;18.60;95.40
59923;DHT22;45778;51.142;3.732;2023-06-14T01:50:35;18.60;95.40
59923;DHT22;45778;51.142;3.732;2023-06-14T01:53:01;18.60;95.10
59923;DHT22;45778;51.142;3.732;2023-06-14T01:55:27;18.50;94.90
59923;DHT22;45778;51.142;3.732;2023-06-14T01:57:53;18.50;94.70
59923;DHT22;45778;51.142;3.732;2023-06-14T02:00:20;18.60;94.60
59923;DHT22;45778;51.142;3.732;2023-06-14T02:02:47;18.50;94.60
59923;DHT22;45778;51.142;3.732;2023-06-14T02:05:13;18.60;94.30
59923;DHT22;45778;51.142;3.732;2023-06-14T02:07:38;18.60;93.90
59923;DHT22;45778;51.142;3.732;2023-06-14T02:10:06;18.50;94.00
59923;DHT22;45778;51.142;3.732;2023-06-14T02:12:32;18.50;94.10
59923;DHT22;45778;51.142;3.732;2023-06-14T02:14:58;18.50;93.90
59923;DHT22;45778;51.142;3.732;2023-06-14T02:17:24;18.40;93.80
59923;DHT22;45778;51.142;3.732;2023-06-14T02:19:50;18.40;94.00
59923;DHT22;45778;51.142;3.732;2023-06-14T02:22:16;18.30;94.10
59923;DHT22;45778;51.142;3.732;2023-06-14T02:24:42;18.20;94.30
59923;DHT22;45778;51.142;3.732;2023-06-14T02:27:08;18.20;94.30
59923;DHT22;45778;51.142;3.732;2023-06-14T02:29:36;18.20;94.30
59923;DHT22;45778;51.142;3.732;2023-06-14T02:32:02;18.10;94.60
59923;DHT22;45778;51.142;3.732;2023-06-14T02:34:28;18.10;94.50
59923;DHT22;45778;51.142;3.732;2023-06-14T02:36:54;18.20;94.20
59923;DHT22;45778;51.142;3.732;2023-06-14T02:39:20;18.10;94.30
59923;DHT22;45778;51.142;3.732;2023-06-14T02:41:49;18.10;94.20
59923;DHT22;45778;51.142;3.732;2023-06-14T02:44:16;17.90;94.40
59923;DHT22;45778;51.142;3.732;2023-06-14T02:46:42;17.80;94.70
59923;DHT22;45778;51.142;3.732;2023-06-14T02:49:09;17.80;94.90
59923;DHT22;45778;51.142;3.732;2023-06-14T02:51:35;17.80;95.00
59923;DHT22;45778;51.142;3.732;2023-06-14T02:54:01;17.90;94.60
59923;DHT22;45778;51.142;3.732;2023-06-14T02:56:27;17.80;94.50
59923;DHT22;45778;51.142;3.732;2023-06-14T02:58:53;17.80;94.40
59923;DHT22;45778;51.142;3.732;2023-06-14T03:01:18;17.80;94.20
59923;DHT22;45778;51.142;3.732;2023-06-14T03:03:46;17.90;93.80
59923;DHT22;45778;51.142;3.732;2023-06-14T03:06:11;17.90;93.60
59923;DHT22;45778;51.142;3.732;2023-06-14T03:08:38;17.80;93.90
59923;DHT22;45778;51.142;3.732;2023-06-14T03:11:04;17.70;94.00
59923;DHT22;45778;51.142;3.732;2023-06-14T03:13:31;17.60;94.40
59923;DHT22;45778;51.142;3.732;2023-06-14T03:15:59;17.50;94.40
59923;DHT22;45778;51.142;3.732;2023-06-14T03:18:29;17.50;94.70
59923;DHT22;45778;51.142;3.732;2023-06-14T03:20:56;17.50;94.50
59923;DHT22;45778;51.142;3.732;2023-06-14T03:23:23;17.50;94.30
59923;DHT22;45778;51.142;3.732;2023-06-14T03:25:49;17.40;94.40
59923;DHT22;45778;51.142;3.732;2023-06-14T03:28:14;17.50;94.20
59923;DHT22;45778;51.142;3.732;2023-06-14T03:30:40;17.40;94.30
59923;DHT22;45778;51.142;3.732;2023-06-14T03:33:06;17.30;94.60
59923;DHT22;45778;51.142;3.732;2023-06-14T03:35:32;17.20;94.90
59923;DHT22;45778;51.142;3.732;2023-06-14T03:37:57;17.30;95.20
59923;DHT22;45778;51.142;3.732;2023-06-14T03:40:23;17.40;94.30
59923;DHT22;45778;51.142;3.732;2023-06-14T03:42:53;17.60;94.10
59923;DHT22;45778;51.142;3.732;2023-06-14T03:45:18;17.60;94.90
59923;DHT22;45778;51.142;3.732;2023-06-14T03:47:44;17.70;93.90
59923;DHT22;45778;51.142;3.732;2023-06-14T03:50:10;17.70;93.40
59923;DHT22;45778;51.142;3.732;2023-06-14T03:52:36;17.70;93.70
59923;DHT22;45778;51.142;3.732;2023-06-14T03:55:02;17.80;93.50
59923;DHT22;45778;51.142;3.732;2023-06-14T03:57:29;17.90;93.20
59923;DHT22;45778;51.142;3.732;2023-06-14T03:59:54;17.90;93.10
59923;DHT22;45778;51.142;3.732;2023-06-14T04:02:20;17.90;92.90
59923;DHT22;45778;51.142;3.732;2023-06-14T04:04:46;17.80;92.80
59923;DHT22;45778;51.142;3.732;2023-06-14T04:07:14;17.80;92.60
59923;DHT22;45778;51.142;3.732;2023-06-14T04:09:40;17.80;93.00
59923;DHT22;45778;51.142;3.732;2023-06-14T04:12:06;17.90;93.10
59923;DHT22;45778;51.142;3.732;2023-06-14T04:14:34;17.90;92.90
59923;DHT22;45778;51.142;3.732;2023-06-14T04:17:00;17.90;92.70
59923;DHT22;45778;51.142;3.732;2023-06-14T04:19:26;18.00;92.60
59923;DHT22;45778;51.142;3.732;2023-06-14T04:21:52;18.10;92.40
59923;DHT22;45778;51.142;3.732;2023-06-14T04:24:18;18.10;92.40
59923;DHT22;45778;51.142;3.732;2023-06-14T04:26:45;18.20;92.20
59923;DHT22;45778;51.142;3.732;2023-06-14T04:29:11;18.20;92.10
59923;DHT22;45778;51.142;3.732;2023-06-14T04:31:42;18.20;92.10
59923;DHT22;45778;51.142;3.732;2023-06-14T04:34:07;18.20;92.00
59923;DHT22;45778;51.142;3.732;2023-06-14T04:36:34;18.20;91.90
59923;DHT22;45778;51.142;3.732;2023-06-14T04:39:03;18.30;92.00
59923;DHT22;45778;51.142;3.732;2023-06-14T04:41:32;18.30;91.70
59923;DHT22;45778;51.142;3.732;2023-06-14T04:43:59;18.30;91.60
59923;DHT22;45778;51.142;3.732;2023-06-14T04:46:28;18.40;91.70
59923;DHT22;45778;51.142;3.732;2023-06-14T04:48:54;18.50;91.50
59923;DHT22;45778;51.142;3.732;2023-06-14T04:51:20;18.60;91.20
59923;DHT22;45778;51.142;3.732;2023-06-14T04:53:56;18.70;90.50
59923;DHT22;45778;51.142;3.732;2023-06-14T04:56:25;18.80;90.30
59923;DHT22;45778;51.142;3.732;2023-06-14T04:58:51;18.80;90.30
59923;DHT22;45778;51.142;3.732;2023-06-14T05:01:18;19.00;90.00
59923;DHT22;45778;51.142;3.732;2023-06-14T05:03:45;19.00;89.70
59923;DHT22;45778;51.142;3.732;2023-06-14T05:06:14;19.20;89.00
59923;DHT22;45778;51.142;3.732;2023-06-14T05:08:40;19.20;88.80
59923;DHT22;45778;51.142;3.732;2023-06-14T05:11:05;19.30;88.50
59923;DHT22;45778;51.142;3.732;2023-06-14T05:13:31;19.40;88.20
59923;DHT22;45778;51.142;3.732;2023-06-14T05:15:58;19.50;87.70
59923;DHT22;45778;51.142;3.732;2023-06-14T05:18:24;19.50;87.60
59923;DHT22;45778;51.142;3.732;2023-06-14T05:20:51;19.60;87.30
59923;DHT22;45778;51.142;3.732;2023-06-14T05:23:16;19.70;87.10
59923;DHT22;45778;51.142;3.732;2023-06-14T05:25:45;19.90;86.30
59923;DHT22;45778;51.142;3.732;2023-06-14T05:28:11;20.10;84.90
59923;DHT22;45778;51.142;3.732;2023-06-14T05:30:40;20.30;84.50
59923;DHT22;45778;51.142;3.732;2023-06-14T05:33:06;20.40;83.70
59923;DHT22;45778;51.142;3.732;2023-06-14T05:35:32;20.60;83.20
59923;DHT22;45778;51.142;3.732;2023-06-14T05:37:57;20.80;81.80
59923;DHT22;45778;51.142;3.732;2023-06-14T05:40:23;20.90;81.20
59923;DHT22;45778;51.142;3.732;2023-06-14T05:42:49;21.00;81.20
59923;DHT22;45778;51.142;3.732;2023-06-14T05:45:14;21.10;80.20
59923;DHT22;45778;51.142;3.732;2023-06-14T05:47:43;21.20;80.20
59923;DHT22;45778;51.142;3.732;2023-06-14T05:50:09;21.40;79.90
59923;DHT22;45778;51.142;3.732;2023-06-14T05:52:35;21.40;79.40
59923;DHT22;45778;51.142;3.732;2023-06-14T05:55:04;21.60;79.00
59923;DHT22;45778;51.142;3.732;2023-06-14T05:57:30;21.70;78.40
59923;DHT22;45778;51.142;3.732;2023-06-14T05:59:56;21.80;78.30
59923;DHT22;45778;51.142;3.732;2023-06-14T06:02:21;21.80;77.80
59923;DHT22;45778;51.142;3.732;2023-06-14T06:04:47;21.90;77.50
59923;DHT22;45778;51.142;3.732;2023-06-14T06:07:13;21.80;75.50
59923;DHT22;45778;51.142;3.732;2023-06-14T06:09:38;21.90;75.70
59923;DHT22;45778;51.142;3.732;2023-06-14T06:12:06;22.00;74.60
59923;DHT22;45778;51.142;3.732;2023-06-14T06:14:32;22.10;72.90
59923;DHT22;45778;51.142;3.732;2023-06-14T06:16:58;22.10;72.20
59923;DHT22;45778;51.142;3.732;2023-06-14T06:19:24;22.10;71.70
59923;DHT22;45778;51.142;3.732;2023-06-14T06:21:50;22.10;72.50
59923;DHT22;45778;51.142;3.732;2023-06-14T06:24:15;22.00;72.40
59923;DHT22;45778;51.142;3.732;2023-06-14T06:26:41;22.00;72.20
59923;DHT22;45778;51.142;3.732;2023-06-14T06:29:07;22.10;72.30
59923;DHT22;45778;51.142;3.732;2023-06-14T06:31:33;22.30;71.70
59923;DHT22;45778;51.142;3.732;2023-06-14T06:33:58;22.20;71.90
59923;DHT22;45778;51.142;3.732;2023-06-14T06:36:24;22.20;71.90
59923;DHT22;45778;51.142;3.732;2023-06-14T06:38:50;22.20;71.50
59923;DHT22;45778;51.142;3.732;2023-06-14T06:41:16;22.30;72.10
59923;DHT22;45778;51.142;3.732;2023-06-14T06:43:41;22.30;71.70
59923;DHT22;45778;51.142;3.732;2023-06-14T06:46:07;22.40;71.50
59923;DHT22;45778;51.142;3.732;2023-06-14T06:48:33;22.50;71.40
59923;DHT22;45778;51.142;3.732;2023-06-14T06:50:58;22.60;71.40
59923;DHT22;45778;51.142;3.732;2023-06-14T06:53:24;22.50;70.80
59923;DHT22;45778;51.142;3.732;2023-06-14T06:55:50;22.70;71.00
59923;DHT22;45778;51.142;3.732;2023-06-14T06:58:15;22.80;70.60
59923;DHT22;45778;51.142;3.732;2023-06-14T07:00:41;22.90;70.70
59923;DHT22;45778;51.142;3.732;2023-06-14T07:03:07;23.00;70.40
59923;DHT22;45778;51.142;3.732;2023-06-14T07:05:32;23.00;70.30
59923;DHT22;45778;51.142;3.732;2023-06-14T07:07:58;23.00;69.80
59923;DHT22;45778;51.142;3.732;2023-06-14T07:10:24;23.10;69.90
59923;DHT22;45778;51.142;3.732;2023-06-14T07:12:50;23.30;69.80
59923;DHT22;45778;51.142;3.732;2023-06-14T07:15:16;23.30;69.20
59923;DHT22;45778;51.142;3.732;2023-06-14T07:17:42;23.40;69.30
59923;DHT22;45778;51.142;3.732;2023-06-14T07:20:09;23.50;69.70
59923;DHT22;45778;51.142;3.732;2023-06-14T07:22:41;23.50;70.20
59923;DHT22;45778;51.142;3.732;2023-06-14T07:25:09;23.70;70.30
59923;DHT22;45778;51.142;3.732;2023-06-14T07:27:35;23.60;69.80
59923;DHT22;45778;51.142;3.732;2023-06-14T07:30:00;23.80;70.00
59923;DHT22;45778;51.142;3.732;2023-06-14T07:32:26;24.00;69.70
59923;DHT22;45778;51.142;3.732;2023-06-14T07:34:51;24.20;68.90
59923;DHT22;45778;51.142;3.732;2023-06-14T07:37:17;24.30;69.50
59923;DHT22;45778;51.142;3.732;2023-06-14T07:39:43;24.50;69.00
59923;DHT22;45778;51.142;3.732;2023-06-14T07:42:08;24.60;67.90
59923;DHT22;45778;51.142;3.732;2023-06-14T07:44:34;24.80;68.10
59923;DHT22;45778;51.142;3.732;2023-06-14T07:47:00;24.80;67.80
59923;DHT22;45778;51.142;3.732;2023-06-14T07:49:27;24.90;67.60
59923;DHT22;45778;51.142;3.732;2023-06-14T07:51:52;25.00;67.80
59923;DHT22;45778;51.142;3.732;2023-06-14T07:54:19;25.00;66.90
59923;DHT22;45778;51.142;3.732;2023-06-14T07:56:45;25.00;67.90
59923;DHT22;45778;51.142;3.732;2023-06-14T07:59:11;25.30;67.10
59923;DHT22;45778;51.142;3.732;2023-06-14T08:01:37;25.30;66.50
59923;DHT22;45778;51.142;3.732;2023-06-14T08:04:02;25.20;66.00
59923;DHT22;45778;51.142;3.732;2023-06-14T08:06:29;25.30;65.60
59923;DHT22;45778;51.142;3.732;2023-06-14T08:08:55;24.90;66.40
59923;DHT22;45778;51.142;3.732;2023-06-14T08:11:21;25.10;67.00
59923;DHT22;45778;51.142;3.732;2023-06-14T08:13:49;25.20;66.70
59923;DHT22;45778;51.142;3.732;2023-06-14T08:16:15;25.20;66.60
59923;DHT22;45778;51.142;3.732;2023-06-14T08:18:40;25.40;66.40
59923;DHT22;45778;51.142;3.732;2023-06-14T08:21:06;25.20;66.50
59923;DHT22;45778;51.142;3.732;2023-06-14T08:23:32;25.30;67.10
59923;DHT22;45778;51.142;3.732;2023-06-14T08:25:58;25.60;66.00
59923;DHT22;45778;51.142;3.732;2023-06-14T08:28:26;25.70;66.40
59923;DHT22;45778;51.142;3.732;2023-06-14T08:30:52;25.70;65.50
59923;DHT22;45778;51.142;3.732;2023-06-14T08:33:18;25.90;66.20
59923;DHT22;45778;51.142;3.732;2023-06-14T08:35:44;26.10;66.20
59923;DHT22;45778;51.142;3.732;2023-06-14T08:38:10;26.30;66.10
59923;DHT22;45778;51.142;3.732;2023-06-14T08:40:37;26.50;64.00
59923;DHT22;45778;51.142;3.732;2023-06-14T08:43:06;26.30;63.30
59923;DHT22;45778;51.142;3.732;2023-06-14T08:45:31;26.30;63.60
59923;DHT22;45778;51.142;3.732;2023-06-14T08:47:58;26.20;64.00
59923;DHT22;45778;51.142;3.732;2023-06-14T08:50:26;25.80;63.90
59923;DHT22;45778;51.142;3.732;2023-06-14T08:52:54;26.00;65.80
59923;DHT22;45778;51.142;3.732;2023-06-14T08:55:23;26.10;64.50
59923;DHT22;45778;51.142;3.732;2023-06-14T08:57:54;26.30;64.20
59923;DHT22;45778;51.142;3.732;2023-06-14T09:00:20;26.50;63.70
59923;DHT22;45778;51.142;3.732;2023-06-14T09:02:46;26.50;63.00
59923;DHT22;45778;51.142;3.732;2023-06-14T09:05:13;26.70;63.10
59923;DHT22;45778;51.142;3.732;2023-06-14T09:07:42;26.90;62.80
59923;DHT22;45778;51.142;3.732;2023-06-14T09:10:13;27.00;62.10
59923;DHT22;45778;51.142;3.732;2023-06-14T09:12:39;27.00;61.30
59923;DHT22;45778;51.142;3.732;2023-06-14T09:15:05;27.10;61.70
59923;DHT22;45778;51.142;3.732;2023-06-14T09:17:37;27.10;61.30
59923;DHT22;45778;51.142;3.732;2023-06-14T09:20:04;27.10;60.90
59923;DHT22;45778;51.142;3.732;2023-06-14T09:22:35;26.90;59.40
59923;DHT22;45778;51.142;3.732;2023-06-14T09:25:01;27.00;59.40
59923;DHT22;45778;51.142;3.732;2023-06-14T09:27:28;27.00;59.20
59923;DHT22;45778;51.142;3.732;2023-06-14T09:29:54;27.30;59.80
59923;DHT22;45778;51.142;3.732;2023-06-14T09:32:21;27.50;59.10
59923;DHT22;45778;51.142;3.732;2023-06-14T09:34:47;27.60;56.50
59923;DHT22;45778;51.142;3.732;2023-06-14T09:37:13;27.60;55.90
59923;DHT22;45778;51.142;3.732;2023-06-14T09:39:51;27.60;56.50
59923;DHT22;45778;51.142;3.732;2023-06-14T09:42:18;27.70;56.50
59923;DHT22;45778;51.142;3.732;2023-06-14T09:44:46;27.70;54.20
59923;DHT22;45778;51.142;3.732;2023-06-14T09:47:13;27.70;56.00
59923;DHT22;45778;51.142;3.732;2023-06-14T09:49:40;27.90;55.00
59923;DHT22;45778;51.142;3.732;2023-06-14T09:52:07;28.00;55.50
59923;DHT22;45778;51.142;3.732;2023-06-14T09:54:40;28.10;54.90
59923;DHT22;45778;51.142;3.732;2023-06-14T09:57:09;28.20;53.70
59923;DHT22;45778;51.142;3.732;2023-06-14T09:59:43;28.40;54.40
59923;DHT22;45778;51.142;3.732;2023-06-14T10:02:34;28.40;55.60
59923;DHT22;45778;51.142;3.732;2023-06-14T10:05:09;28.30;55.70
59923;DHT22;45778;51.142;3.732;2023-06-14T10:07:48;28.30;54.90
59923;DHT22;45778;51.142;3.732;2023-06-14T10:10:18;28.40;55.00
59923;DHT22;45778;51.142;3.732;2023-06-14T10:12:44;28.40;54.40
59923;DHT22;45778;51.142;3.732;2023-06-14T10:15:16;28.30;52.80
59923;DHT22;45778;51.142;3.732;2023-06-14T10:17:59;28.30;53.50
59923;DHT22;45778;51.142;3.732;2023-06-14T10:21:32;28.50;52.80
59923;DHT22;45778;51.142;3.732;2023-06-14T10:23:43;28.40;53.40
59923;DHT22;45778;51.142;3.732;2023-06-14T10:26:18;28.30;54.10
59923;DHT22;45778;51.142;3.732;2023-06-14T10:29:01;28.30;55.00
59923;DHT22;45778;51.142;3.732;2023-06-14T10:31:43;28.50;54.40
59923;DHT22;45778;51.142;3.732;2023-06-14T10:34:09;28.60;54.60
59923;DHT22;45778;51.142;3.732;2023-06-14T10:36:35;28.70;53.90
59923;DHT22;45778;51.142;3.732;2023-06-14T10:41:37;28.80;53.20
59923;DHT22;45778;51.142;3.732;2023-06-14T10:49:16;28.80;53.40
59923;DHT22;45778;51.142;3.732;2023-06-14T10:51:53;28.90;53.70
59923;DHT22;45778;51.142;3.732;2023-06-14T10:54:22;29.00;53.90
59923;DHT22;45778;51.142;3.732;2023-06-14T10:56:50;29.20;53.10
59923;DHT22;45778;51.142;3.732;2023-06-14T10:59:18;29.40;54.80
59923;DHT22;45778;51.142;3.732;2023-06-14T11:04:51;29.40;53.10
59923;DHT22;45778;51.142;3.732;2023-06-14T11:12:32;30.10;52.10
59923;DHT22;45778;51.142;3.732;2023-06-14T11:14:59;30.10;50.30
59923;DHT22;45778;51.142;3.732;2023-06-14T11:17:25;30.00;51.30
59923;DHT22;45778;51.142;3.732;2023-06-14T11:20:10;29.80;50.30
59923;DHT22;45778;51.142;3.732;2023-06-14T11:22:42;30.00;51.00
59923;DHT22;45778;51.142;3.732;2023-06-14T11:25:14;30.10;50.80
59923;DHT22;45778;51.142;3.732;2023-06-14T11:27:42;30.20;51.50
59923;DHT22;45778;51.142;3.732;2023-06-14T11:30:08;30.20;50.40
59923;DHT22;45778;51.142;3.732;2023-06-14T11:32:36;30.40;50.40
59923;DHT22;45778;51.142;3.732;2023-06-14T11:35:02;30.70;48.90
59923;DHT22;45778;51.142;3.732;2023-06-14T11:37:28;30.90;49.40
59923;DHT22;45778;51.142;3.732;2023-06-14T11:40:01;30.70;49.60
59923;DHT22;45778;51.142;3.732;2023-06-14T11:42:29;30.90;49.30
59923;DHT22;45778;51.142;3.732;2023-06-14T11:44:55;30.80;49.80
59923;DHT22;45778;51.142;3.732;2023-06-14T11:47:22;31.00;48.90
59923;DHT22;45778;51.142;3.732;2023-06-14T11:49:48;31.10;49.00
59923;DHT22;45778;51.142;3.732;2023-06-14T11:52:14;31.20;48.20
59923;DHT22;45778;51.142;3.732;2023-06-14T11:54:40;31.40;48.70
59923;DHT22;45778;51.142;3.732;2023-06-14T11:57:09;30.50;47.80
59923;DHT22;45778;51.142;3.732;2023-06-14T11:59:39;30.80;49.50
59923;DHT22;45778;51.142;3.732;2023-06-14T12:02:06;31.40;48.70
59923;DHT22;45778;51.142;3.732;2023-06-14T12:04:41;31.80;48.00
59923;DHT22;45778;51.142;3.732;2023-06-14T12:07:10;32.90;47.80
59923;DHT22;45778;51.142;3.732;2023-06-14T12:12:25;35.20;45.60
59923;DHT22;45778;51.142;3.732;2023-06-14T12:14:51;35.80;45.10
59923;DHT22;45778;51.142;3.732;2023-06-14T12:17:18;36.70;44.30
59923;DHT22;45778;51.142;3.732;2023-06-14T12:19:45;37.90;43.70
59923;DHT22;45778;51.142;3.732;2023-06-14T12:22:11;38.30;42.70
59923;DHT22;45778;51.142;3.732;2023-06-14T12:24:38;39.60;42.70
59923;DHT22;45778;51.142;3.732;2023-06-14T12:27:05;39.90;40.70
59923;DHT22;45778;51.142;3.732;2023-06-14T12:29:31;39.40;42.40
59923;DHT22;45778;51.142;3.732;2023-06-14T12:31:57;39.10;42.10
59923;DHT22;45778;51.142;3.732;2023-06-14T12:34:26;40.20;41.00
59923;DHT22;45778;51.142;3.732;2023-06-14T12:36:53;40.80;40.90
59923;DHT22;45778;51.142;3.732;2023-06-14T12:39:19;40.80;40.60
59923;DHT22;45778;51.142;3.732;2023-06-14T12:41:45;40.40;40.20
59923;DHT22;45778;51.142;3.732;2023-06-14T12:44:14;40.90;41.00
59923;DHT22;45778;51.142;3.732;2023-06-14T12:46:43;41.80;39.80
59923;DHT22;45778;51.142;3.732;2023-06-14T12:49:11;39.00;39.60
59923;DHT22;45778;51.142;3.732;2023-06-14T12:51:37;39.80;41.20
59923;DHT22;45778;51.142;3.732;2023-06-14T12:54:03;39.90;40.30
59923;DHT22;45778;51.142;3.732;2023-06-14T12:56:29;40.80;40.10
59923;DHT22;45778;51.142;3.732;2023-06-14T12:58:55;40.30;40.20
59923;DHT22;45778;51.142;3.732;2023-06-14T13:01:21;41.10;40.10
59923;DHT22;45778;51.142;3.732;2023-06-14T13:03:47;41.70;39.60
59923;DHT22;45778;51.142;3.732;2023-06-14T13:06:13;41.30;39.30
59923;DHT22;45778;51.142;3.732;2023-06-14T13:08:39;40.80;39.90
59923;DHT22;45778;51.142;3.732;2023-06-14T13:11:04;40.70;39.90
59923;DHT22;45778;51.142;3.732;2023-06-14T13:13:30;40.90;38.90
59923;DHT22;45778;51.142;3.732;2023-06-14T13:15:56;41.20;38.80
59923;DHT22;45778;51.142;3.732;2023-06-14T13:18:21;39.90;39.90
59923;DHT22;45778;51.142;3.732;2023-06-14T13:20:47;40.10;39.90
59923;DHT22;45778;51.142;3.732;2023-06-14T13:23:13;41.30;39.00
59923;DHT22;45778;51.142;3.732;2023-06-14T13:25:39;42.20;38.30
59923;DHT22;45778;51.142;3.732;2023-06-14T13:28:05;42.80;38.00
59923;DHT22;45778;51.142;3.732;2023-06-14T13:30:32;43.90;37.50
59923;DHT22;45778;51.142;3.732;2023-06-14T13:32:58;43.20;37.90
59923;DHT22;45778;51.142;3.732;2023-06-14T13:35:24;44.10;37.30
59923;DHT22;45778;51.142;3.732;2023-06-14T13:37:51;44.30;37.20
59923;DHT22;45778;51.142;3.732;2023-06-14T13:40:16;43.10;37.30
59923;DHT22;45778;51.142;3.732;2023-06-14T13:42:42;43.00;37.60
59923;DHT22;45778;51.142;3.732;2023-06-14T13:45:10;42.80;37.80
59923;DHT22;45778;51.142;3.732;2023-06-14T13:47:35;42.20;37.50
59923;DHT22;45778;51.142;3.732;2023-06-14T13:50:02;42.40;38.20
59923;DHT22;45778;51.142;3.732;2023-06-14T13:52:28;43.00;37.90
59923;DHT22;45778;51.142;3.732;2023-06-14T13:54:54;43.50;37.10
59923;DHT22;45778;51.142;3.732;2023-06-14T13:57:20;44.10;37.50
59923;DHT22;45778;51.142;3.732;2023-06-14T13:59:45;45.30;37.40
59923;DHT22;45778;51.142;3.732;2023-06-14T14:02:11;45.20;36.80
59923;DHT22;45778;51.142;3.732;2023-06-14T14:04:37;44.60;37.40
59923;DHT22;45778;51.142;3.732;2023-06-14T14:07:05;44.40;37.70
59923;DHT22;45778;51.142;3.732;2023-06-14T14:09:32;45.30;37.40
59923;DHT22;45778;51.142;3.732;2023-06-14T14:12:01;45.50;37.30
59923;DHT22;45778;51.142;3.732;2023-06-14T14:14:31;45.00;36.70
59923;DHT22;45778;51.142;3.732;2023-06-14T14:16:57;45.70;36.80
59923;DHT22;45778;51.142;3.732;2023-06-14T14:19:24;45.00;36.80
59923;DHT22;45778;51.142;3.732;2023-06-14T14:21:50;41.90;37.60
59923;DHT22;45778;51.142;3.732;2023-06-14T14:24:15;41.80;38.00
59923;DHT22;45778;51.142;3.732;2023-06-14T14:26:41;41.40;38.10
59923;DHT22;45778;51.142;3.732;2023-06-14T14:29:07;41.30;38.30
59923;DHT22;45778;51.142;3.732;2023-06-14T14:31:34;42.40;38.10
59923;DHT22;45778;51.142;3.732;2023-06-14T14:33:59;43.80;37.20
59923;DHT22;45778;51.142;3.732;2023-06-14T14:36:25;44.10;36.60
59923;DHT22;45778;51.142;3.732;2023-06-14T14:38:51;45.20;36.60
59923;DHT22;45778;51.142;3.732;2023-06-14T14:41:19;46.20;36.60
59923;DHT22;45778;51.142;3.732;2023-06-14T14:43:44;45.50;35.60
59923;DHT22;45778;51.142;3.732;2023-06-14T14:46:10;45.90;35.50
59923;DHT22;45778;51.142;3.732;2023-06-14T14:48:36;45.90;36.00
59923;DHT22;45778;51.142;3.732;2023-06-14T14:51:01;45.90;35.10
59923;DHT22;45778;51.142;3.732;2023-06-14T14:53:27;45.50;35.10
59923;DHT22;45778;51.142;3.732;2023-06-14T14:55:53;45.70;35.80
59923;DHT22;45778;51.142;3.732;2023-06-14T14:58:19;46.40;35.60
59923;DHT22;45778;51.142;3.732;2023-06-14T15:00:45;44.80;35.30
59923;DHT22;45778;51.142;3.732;2023-06-14T15:03:11;45.00;35.50
59923;DHT22;45778;51.142;3.732;2023-06-14T15:05:37;44.40;35.30
59923;DHT22;45778;51.142;3.732;2023-06-14T15:08:03;44.60;35.80
59923;DHT22;45778;51.142;3.732;2023-06-14T15:10:29;45.20;35.30
59923;DHT22;45778;51.142;3.732;2023-06-14T15:12:55;45.50;35.10
59923;DHT22;45778;51.142;3.732;2023-06-14T15:15:22;46.00;34.90
59923;DHT22;45778;51.142;3.732;2023-06-14T15:17:47;46.20;35.40
59923;DHT22;45778;51.142;3.732;2023-06-14T15:20:13;46.40;35.00
59923;DHT22;45778;51.142;3.732;2023-06-14T15:22:40;47.20;35.30
59923;DHT22;45778;51.142;3.732;2023-06-14T15:25:06;46.90;34.60
59923;DHT22;45778;51.142;3.732;2023-06-14T15:27:32;45.70;34.90
59923;DHT22;45778;51.142;3.732;2023-06-14T15:29:58;43.80;36.40
59923;DHT22;45778;51.142;3.732;2023-06-14T15:32:23;43.80;36.50
59923;DHT22;45778;51.142;3.732;2023-06-14T15:34:49;43.30;36.60
59923;DHT22;45778;51.142;3.732;2023-06-14T15:37:15;42.70;36.30
59923;DHT22;45778;51.142;3.732;2023-06-14T15:39:40;43.10;36.40
59923;DHT22;45778;51.142;3.732;2023-06-14T15:42:06;43.60;36.30
59923;DHT22;45778;51.142;3.732;2023-06-14T15:44:33;43.40;35.80
59923;DHT22;45778;51.142;3.732;2023-06-14T15:46:59;43.90;35.90
59923;DHT22;45778;51.142;3.732;2023-06-14T15:49:25;42.70;36.50
59923;DHT22;45778;51.142;3.732;2023-06-14T15:51:51;43.10;36.20